createdAt,value
2023-10-23T00:00:29.802Z,99565.83
2023-10-23T00:05:52.851Z,99565.65
2023-10-23T00:10:55.868Z,99568.77
2023-10-23T00:15:58.972Z,99572.08
2023-10-23T00:21:02.087Z,99578.77
2023-10-23T00:26:07.140Z,99580.73
2023-10-23T00:31:10.165Z,99581.77
2023-10-23T00:36:13.350Z,99589.61
2023-10-23T00:41:16.554Z,99592.06
2023-10-23T00:46:21.510Z,99596.44
2023-10-23T00:51:24.606Z,99597.27
2023-10-23T00:56:28.627Z,99596.86
2023-10-23T01:01:34.428Z,99602.58
2023-10-23T01:06:37.592Z,99606.89
2023-10-23T01:11:40.553Z,99613.52
2023-10-23T01:16:43.560Z,99611.62
2023-10-23T01:21:46.590Z,99606.71
2023-10-23T01:26:49.991Z,99610.94
2023-10-23T01:31:52.900Z,99627.55
2023-10-23T01:36:55.895Z,99634.25
2023-10-23T01:41:59.003Z,99637.58
2023-10-23T01:47:02.005Z,99643.23
2023-10-23T01:52:05.751Z,99644.48
2023-10-23T01:57:08.939Z,99647.31
2023-10-23T02:02:12.374Z,99656.79
2023-10-23T02:07:15.363Z,99659.63
2023-10-23T02:12:18.405Z,99658.59
2023-10-23T02:17:21.978Z,99661.95
2023-10-23T02:22:25.426Z,99670.02
2023-10-23T02:27:28.536Z,99671.98
2023-10-23T02:32:31.656Z,99674.13
2023-10-23T02:37:34.831Z,99674.73
2023-10-23T02:42:38.181Z,99682.30
2023-10-23T02:47:41.476Z,99682.70
2023-10-23T02:52:44.573Z,99684.39
2023-10-23T02:57:47.738Z,99689.55
2023-10-23T03:02:51.310Z,99692.63
2023-10-23T03:07:54.926Z,99701.27
2023-10-23T03:13:01.408Z,99704.48
2023-10-23T03:18:06.709Z,99705.23
2023-10-23T03:23:09.984Z,99704.46
2023-10-23T03:28:13.251Z,99705.06
2023-10-23T03:33:16.510Z,99704.54
2023-10-23T03:38:19.726Z,99706.75
2023-10-23T03:43:22.726Z,99711.92
2023-10-23T03:48:25.852Z,99720.05
2023-10-23T03:53:29.163Z,99722.23
2023-10-23T03:58:32.266Z,99725.45
2023-10-23T04:03:35.357Z,99724.58
2023-10-23T04:08:39.085Z,99721.29
2023-10-23T04:13:42.406Z,99719.83
2023-10-23T04:18:45.738Z,99717.89
2023-10-23T04:23:48.928Z,99722.05
2023-10-23T04:28:52.152Z,99729.09
2023-10-23T04:33:55.373Z,99731.91
2023-10-23T04:38:58.469Z,99739.21
2023-10-23T04:44:01.654Z,99746.73
2023-10-23T04:49:05.228Z,99747.41
2023-10-23T04:54:08.527Z,99743.98
2023-10-23T04:59:11.623Z,99749.26
2023-10-23T05:04:14.932Z,99754.76
2023-10-23T05:09:18.161Z,99763.92
2023-10-23T05:14:21.279Z,99774.19
2023-10-23T05:19:24.210Z,99780.47
2023-10-23T05:24:28.307Z,99785.13
2023-10-23T05:29:31.413Z,99789.64
2023-10-23T05:34:35.073Z,99800.45
2023-10-23T05:39:38.436Z,99812.13
2023-10-23T05:44:41.993Z,99828.18
2023-10-23T05:49:45.267Z,99833.56
2023-10-23T05:54:48.492Z,99841.22
2023-10-23T05:59:51.691Z,99846.59
2023-10-23T06:04:55.004Z,99854.60
2023-10-23T06:09:59.770Z,99854.08
2023-10-23T06:15:03.387Z,99857.23
2023-10-23T06:20:07.409Z,99870.44
2023-10-23T06:25:10.514Z,99881.45
2023-10-23T06:30:13.982Z,99887.85
2023-10-23T06:35:17.559Z,99896.84
2023-10-23T06:40:20.647Z,99900.11
2023-10-23T06:45:25.920Z,99904.95
2023-10-23T06:50:34.025Z,99906.27
2023-10-23T06:55:37.137Z,99911.02
2023-10-23T07:00:40.238Z,99911.14
2023-10-23T07:05:43.801Z,99910.54
2023-10-23T07:10:46.885Z,99909.78
2023-10-23T07:15:53.185Z,99923.15
2023-10-23T07:20:58.206Z,99921.91
2023-10-23T07:26:05.345Z,99935.23
2023-10-23T07:31:10.233Z,99943.45
2023-10-23T07:36:14.902Z,99941.71
2023-10-23T07:41:18.026Z,99941.92
2023-10-23T07:46:21.330Z,99947.16
2023-10-23T07:51:24.537Z,99950.61
2023-10-23T07:56:27.753Z,99953.45
2023-10-23T08:01:30.907Z,99957.73
2023-10-23T08:06:34.188Z,99951.24
2023-10-23T08:11:37.481Z,99952.98
2023-10-23T08:16:40.868Z,99954.41
2023-10-23T08:21:44.472Z,99958.31
2023-10-23T08:26:47.743Z,99960.42
2023-10-23T08:31:51.011Z,99958.90
2023-10-23T08:36:54.197Z,99958.27
2023-10-23T08:41:58.491Z,99965.98
2023-10-23T08:47:01.827Z,99963.84
2023-10-23T08:52:11.029Z,99961.09
2023-10-23T08:57:16.329Z,99969.80
2023-10-23T09:02:19.840Z,99971.21
2023-10-23T09:07:23.097Z,99976.77
2023-10-23T09:12:37.754Z,99983.20
2023-10-23T09:17:42.205Z,99976.85
2023-10-23T09:22:48.970Z,99975.81
2023-10-23T09:27:53.631Z,99974.59
2023-10-23T09:32:56.878Z,99980.29
2023-10-23T09:38:00.136Z,99984.13
2023-10-23T09:43:03.499Z,99976.84
2023-10-23T09:48:07.941Z,99973.84
2023-10-23T09:53:12.952Z,99975.04
2023-10-23T09:58:18.822Z,99974.74
2023-10-23T10:03:24.769Z,99972.17
2023-10-23T10:08:34.567Z,99964.71
2023-10-23T10:13:38.331Z,99957.70
2023-10-23T10:18:44.021Z,99951.08
2023-10-23T10:23:47.476Z,99950.36
2023-10-23T10:28:56.175Z,99953.08
2023-10-23T10:34:28.145Z,99954.34
2023-10-23T10:39:54.181Z,99955.42
2023-10-23T10:45:14.866Z,99956.55
2023-10-23T10:50:40.164Z,99957.66
2023-10-23T10:55:46.542Z,99955.73
2023-10-23T11:00:49.866Z,99955.06
2023-10-23T11:05:54.230Z,99955.30
2023-10-23T11:11:01.197Z,99952.15
2023-10-23T11:16:06.073Z,99952.17
2023-10-23T11:21:10.625Z,99955.39
2023-10-23T11:26:13.729Z,99959.01
2023-10-23T11:31:16.824Z,99956.69
2023-10-23T11:36:22.005Z,99957.64
2023-10-23T11:41:28.679Z,99955.09
2023-10-23T11:46:32.417Z,99954.30
2023-10-23T11:51:35.638Z,99960.48
2023-10-23T11:56:38.854Z,99960.96
2023-10-23T12:01:43.015Z,99967.87
2023-10-23T12:06:46.324Z,99969.61
2023-10-23T12:11:50.116Z,99968.91
2023-10-23T12:16:53.257Z,99972.88
2023-10-23T12:21:56.397Z,99977.13
2023-10-23T12:26:59.759Z,99979.91
2023-10-23T12:32:05.919Z,99978.36
2023-10-23T12:37:09.400Z,99981.71
2023-10-23T12:42:12.593Z,99978.09
2023-10-23T12:47:15.989Z,99982.80
2023-10-23T12:52:20.232Z,99982.33
2023-10-23T12:57:23.422Z,99979.45
2023-10-23T13:02:27.250Z,99981.45
2023-10-23T13:07:30.423Z,99983.02
2023-10-23T13:12:33.771Z,99982.85
2023-10-23T13:17:36.982Z,99975.88
2023-10-23T13:22:40.274Z,99974.32
2023-10-23T13:27:50.287Z,99977.52
2023-10-23T13:32:53.533Z,99977.68
2023-10-23T13:37:56.791Z,99978.24
2023-10-23T13:42:59.960Z,99979.55
2023-10-23T13:48:04.252Z,99983.52
2023-10-23T13:53:09.154Z,99989.19
2023-10-23T13:58:12.887Z,99997.77
2023-10-23T14:03:16.307Z,99999.55
2023-10-23T14:08:19.639Z,99994.42
2023-10-23T14:13:38.911Z,99991.04
2023-10-23T14:18:42.249Z,99986.16
2023-10-23T14:23:45.690Z,99988.47
2023-10-23T14:28:48.879Z,99990.20
2023-10-23T14:33:52.428Z,99995.20
2023-10-23T14:38:55.614Z,99991.34
2023-10-23T14:43:59.797Z,99990.71
2023-10-23T14:49:04.359Z,99997.52
2023-10-23T14:54:07.496Z,99997.01
2023-10-23T14:59:10.556Z,99991.09
2023-10-23T15:04:13.934Z,99991.33
2023-10-23T15:09:17.235Z,99992.13
2023-10-23T15:14:20.349Z,99985.52
2023-10-23T15:19:23.827Z,99985.61
2023-10-23T15:24:26.976Z,99986.15
2023-10-23T15:29:30.293Z,99983.46
2023-10-23T15:34:33.805Z,99981.29
2023-10-23T15:39:42.170Z,99981.50
2023-10-23T15:44:45.659Z,99977.91
2023-10-23T15:49:48.875Z,99973.39
2023-10-23T15:54:52.226Z,99980.84
2023-10-23T15:59:55.317Z,99983.08
2023-10-23T16:04:58.406Z,99989.42
2023-10-23T16:10:01.967Z,99992.09
2023-10-23T16:15:06.019Z,99999.21
2023-10-23T16:20:11.081Z,100005.96
2023-10-23T16:25:14.286Z,100008.32
2023-10-23T16:30:17.439Z,100010.69
2023-10-23T16:35:21.732Z,100010.27
2023-10-23T16:40:25.084Z,100006.16
2023-10-23T16:45:33.077Z,100008.50
2023-10-23T16:50:36.536Z,100014.65
2023-10-23T16:55:39.746Z,100009.83
2023-10-23T17:00:43.084Z,100013.92
2023-10-23T17:05:46.147Z,100020.62
2023-10-23T17:10:49.377Z,100024.52
2023-10-23T17:15:53.110Z,100021.80
2023-10-23T17:20:57.136Z,100023.61
2023-10-23T17:26:01.070Z,100017.59
2023-10-23T17:31:04.914Z,100015.75
2023-10-23T17:36:08.733Z,100010.77
2023-10-23T17:41:19.275Z,100009.81
2023-10-23T17:46:22.478Z,100007.46
2023-10-23T17:51:25.714Z,100004.77
2023-10-23T17:56:28.818Z,100008.16
2023-10-23T18:01:32.232Z,100011.73
2023-10-23T18:06:35.546Z,100014.65
2023-10-23T18:11:41.795Z,100013.39
2023-10-23T18:16:46.313Z,100014.34
2023-10-23T18:21:49.688Z,100007.27
2023-10-23T18:26:52.885Z,100009.76
2023-10-23T18:31:56.039Z,100011.92
2023-10-23T18:36:59.154Z,100006.96
2023-10-23T18:42:02.603Z,100011.20
2023-10-23T18:47:08.715Z,100019.61
2023-10-23T18:52:12.074Z,100016.38
2023-10-23T18:57:15.338Z,100017.10
2023-10-23T19:02:18.762Z,100024.64
2023-10-23T19:07:22.209Z,100032.67
2023-10-23T19:12:25.687Z,100026.96
2023-10-23T19:17:39.735Z,100029.59
2023-10-23T19:22:44.612Z,100032.20
2023-10-23T19:27:47.631Z,100033.45
2023-10-23T19:32:52.754Z,100032.58
2023-10-23T19:37:56.225Z,100034.84
2023-10-23T19:43:13.691Z,100037.45
2023-10-23T19:48:17.389Z,100039.88
2023-10-23T19:53:21.609Z,100037.45
2023-10-23T19:58:26.065Z,100037.10
2023-10-23T20:03:29.169Z,100042.30
2023-10-23T20:08:32.589Z,100046.45
2023-10-23T20:13:36.045Z,100045.08
2023-10-23T20:18:40.307Z,100046.82
2023-10-23T20:23:43.455Z,100041.95
2023-10-23T20:28:46.671Z,100039.70
2023-10-23T20:33:52.446Z,100035.19
2023-10-23T20:38:56.265Z,100037.27
2023-10-23T20:43:59.579Z,100031.86
2023-10-23T20:49:03.023Z,100029.27
2023-10-23T20:54:06.387Z,100026.30
2023-10-23T20:59:10.026Z,100023.52
2023-10-23T21:04:13.226Z,100019.67
2023-10-23T21:09:16.434Z,100018.79
2023-10-23T21:14:19.817Z,100015.08
2023-10-23T21:19:23.047Z,100020.91
2023-10-23T21:24:26.260Z,100017.05
2023-10-23T21:29:29.375Z,100016.33
2023-10-23T21:34:32.561Z,100012.69
2023-10-23T21:39:35.796Z,100016.65
2023-10-23T21:44:38.890Z,100013.34
2023-10-23T21:49:42.210Z,100015.01
2023-10-23T21:54:46.004Z,100010.12
2023-10-23T21:59:49.590Z,100009.24
2023-10-23T22:04:53.174Z,100010.25
2023-10-23T22:09:56.899Z,100008.70
2023-10-23T22:15:00.416Z,100009.22
2023-10-23T22:20:04.859Z,100019.18
2023-10-23T22:25:09.469Z,100017.05
2023-10-23T22:30:12.822Z,100015.46
2023-10-23T22:35:15.935Z,100011.11
2023-10-23T22:40:19.429Z,100018.45
2023-10-23T22:45:22.668Z,100016.63
2023-10-23T22:50:26.153Z,100015.50
2023-10-23T22:55:29.771Z,100021.98
2023-10-23T23:00:33.468Z,100028.29
2023-10-23T23:05:40.776Z,100029.59
2023-10-23T23:10:44.390Z,100033.15
2023-10-23T23:15:51.173Z,100046.72
2023-10-23T23:20:57.446Z,100041.98
2023-10-23T23:26:00.555Z,100045.02
2023-10-23T23:31:03.774Z,100040.88
2023-10-23T23:36:07.390Z,100036.02
2023-10-23T23:41:10.484Z,100041.28
2023-10-23T23:46:13.653Z,100042.25
2023-10-23T23:51:17.106Z,100040.42
2023-10-23T23:56:20.112Z,100036.74
